Time;durP1;ratioP1;P1;durP2;ratioP2;P2;SDS_P1;SDS_P2;PMS_P1;PMS_P2;Temp;Humidity;BMP_temperature;BMP_pressure;BME280_temperature;BME280_humidity;BME280_pressure;Samples;Min_cycle;Max_cycle;Signal;HPM_P1;HPM_P2
2022/10/18 00:01:06;;;;;;;9.52;8.52;;;14.20;82.10;;;;;;5131692;27;20035;-75
2022/10/18 00:03:32;;;;;;;9.30;8.13;;;14.20;82.10;;;;;;5131689;27;20077;-75
2022/10/18 00:05:58;;;;;;;8.85;7.85;;;14.20;82.10;;;;;;5114632;28;20046;-75
2022/10/18 00:08:24;;;;;;;8.55;7.30;;;14.10;82.00;;;;;;5114484;28;20498;-75
2022/10/18 00:10:50;;;;;;;7.60;6.90;;;14.10;82.40;;;;;;5132277;27;20424;-75
2022/10/18 00:13:17;;;;;;;10.27;8.93;;;14.10;82.00;;;;;;5114878;28;20039;-75
2022/10/18 00:15:50;;;;;;;10.18;8.25;;;14.10;82.00;;;;;;5114730;27;20035;-75
2022/10/18 00:18:16;;;;;;;8.02;7.07;;;14.10;82.00;;;;;;5135937;27;20046;-75
2022/10/18 00:20:42;;;;;;;10.10;6.53;;;14.10;82.00;;;;;;5135975;27;20031;-75
2022/10/18 00:23:07;;;;;;;7.30;6.50;;;14.10;82.00;;;;;;5136040;27;20040;-75
2022/10/18 00:25:33;;;;;;;9.32;7.55;;;14.00;81.90;;;;;;5135992;27;20142;-75
2022/10/18 00:27:59;;;;;;;10.13;9.02;;;14.10;82.00;;;;;;5135245;27;20082;-75
2022/10/18 00:30:24;;;;;;;11.38;9.25;;;14.00;81.90;;;;;;5135993;27;20376;-75
2022/10/18 00:32:50;;;;;;;10.30;9.07;;;14.00;81.90;;;;;;5135651;27;20462;-75
2022/10/18 00:35:16;;;;;;;13.70;11.20;;;14.00;82.00;;;;;;5135646;27;20039;-75
2022/10/18 00:37:42;;;;;;;18.40;12.25;;;14.00;82.10;;;;;;5134993;27;20478;-75
2022/10/18 00:40:08;;;;;;;13.50;10.10;;;14.00;82.10;;;;;;5135945;27;20042;-75
2022/10/18 00:42:36;;;;;;;9.50;8.30;;;14.00;82.20;;;;;;5118328;27;20030;-75
2022/10/18 00:45:16;;;;;;;12.48;10.82;;;14.00;82.70;;;;;;5135993;27;20035;-75
2022/10/18 00:47:45;;;;;;;8.70;7.55;;;14.00;82.30;;;;;;5136072;27;20036;-75
2022/10/18 00:50:12;;;;;;;8.45;7.25;;;14.00;82.40;;;;;;5135303;27;20043;-75
2022/10/18 00:52:46;;;;;;;10.88;8.73;;;13.90;82.30;;;;;;5117418;27;20035;-75
2022/10/18 00:55:12;;;;;;;8.00;6.47;;;14.00;82.50;;;;;;5132044;27;20105;-74
2022/10/18 00:57:41;;;;;;;11.02;8.27;;;13.90;82.40;;;;;;5115517;27;20086;-75
2022/10/18 01:00:08;;;;;;;8.77;6.95;;;13.90;82.40;;;;;;5130392;27;20046;-75
2022/10/18 01:02:36;;;;;;;7.55;6.60;;;14.00;82.50;;;;;;5134785;27;20359;-75
2022/10/18 01:05:03;;;;;;;10.10;7.70;;;13.90;82.40;;;;;;5135055;27;20050;-75
2022/10/18 01:07:44;;;;;;;8.18;6.60;;;13.90;82.40;;;;;;5117956;27;20062;-75
2022/10/18 01:10:34;;;;;;;7.80;6.68;;;13.90;82.50;;;;;;5122432;27;20050;-75
2022/10/18 01:13:30;;;;;;;8.63;6.18;;;13.90;82.40;;;;;;5129671;27;20042;-75
2022/10/18 01:16:16;;;;;;;7.97;6.15;;;13.90;82.30;;;;;;5135367;27;20453;-75
2022/10/18 01:18:52;;;;;;;9.02;7.32;;;13.90;82.30;;;;;;5093469;27;20076;-75
2022/10/18 01:21:23;;;;;;;9.23;6.80;;;13.90;82.30;;;;;;5134900;27;20039;-75
2022/10/18 01:24:15;;;;;;;9.07;7.97;;;13.90;82.20;;;;;;5134577;27;20086;-75
2022/10/18 01:26:55;;;;;;;7.53;6.50;;;13.90;82.00;;;;;;5117651;27;20043;-75
2022/10/18 01:29:27;;;;;;;7.50;6.18;;;13.90;82.00;;;;;;5133417;27;20058;-75
2022/10/18 01:31:58;;;;;;;6.20;5.60;;;13.90;82.00;;;;;;5134371;27;20060;-75
2022/10/18 01:34:26;;;;;;;7.57;5.85;;;13.90;82.00;;;;;;5134507;27;20046;-75
2022/10/18 01:36:55;;;;;;;9.80;7.07;;;13.90;82.00;;;;;;5117418;27;20122;-75
2022/10/18 01:39:25;;;;;;;10.75;9.73;;;13.80;81.90;;;;;;5134399;27;20506;-75
2022/10/18 01:41:53;;;;;;;10.88;8.32;;;13.80;81.90;;;;;;5133503;27;20038;-75
2022/10/18 01:44:23;;;;;;;8.23;7.05;;;13.80;81.90;;;;;;5125497;27;20070;-75
2022/10/18 01:46:51;;;;;;;9.25;7.75;;;13.80;81.80;;;;;;5117330;27;20073;-75
2022/10/18 01:49:17;;;;;;;10.27;8.18;;;13.80;81.80;;;;;;5134268;27;20095;-75
2022/10/18 01:51:43;;;;;;;9.02;8.02;;;13.80;81.80;;;;;;5117582;27;20047;-75
2022/10/18 01:54:11;;;;;;;9.65;8.15;;;13.70;81.80;;;;;;5133953;27;20046;-75
2022/10/18 01:57:02;;;;;;;10.25;9.18;;;13.70;81.70;;;;;;5133977;27;20051;-75
2022/10/18 01:59:27;;;;;;;9.48;8.00;;;13.70;81.70;;;;;;5133732;27;20032;-75
2022/10/18 02:02:08;;;;;;;12.73;9.93;;;13.70;81.80;;;;;;5134132;27;20042;-75
2022/10/18 02:05:04;;;;;;;8.60;7.70;;;13.70;81.80;;;;;;5134041;27;20165;-75
2022/10/18 02:07:36;;;;;;;10.82;8.85;;;13.70;81.80;;;;;;5116625;27;20042;-75
2022/10/18 02:10:42;;;;;;;7.95;7.05;;;13.70;81.90;;;;;;5134239;27;20043;-75
2022/10/18 02:13:11;;;;;;;10.95;8.65;;;13.70;81.80;;;;;;5133397;27;20398;-75
2022/10/18 02:15:40;;;;;;;14.18;10.80;;;13.60;81.80;;;;;;5133845;27;20065;-75
2022/10/18 02:18:14;;;;;;;9.55;8.13;;;13.60;81.80;;;;;;5132965;27;20119;-75
2022/10/18 02:20:40;;;;;;;11.65;10.50;;;13.60;81.90;;;;;;5116633;27;20054;-75
2022/10/18 02:23:09;;;;;;;11.38;9.30;;;13.60;81.80;;;;;;5116370;27;20073;-75
2022/10/18 02:25:35;;;;;;;10.25;9.15;;;13.60;81.90;;;;;;5133470;27;20047;-75
2022/10/18 02:28:03;;;;;;;13.07;9.65;;;13.60;81.90;;;;;;5132762;27;20091;-75
2022/10/18 02:31:00;;;;;;;7.90;6.95;;;13.60;81.90;;;;;;5133685;27;20096;-75
2022/10/18 02:33:57;;;;;;;11.02;9.70;;;13.60;81.80;;;;;;5133211;27;20074;-75
2022/10/18 02:36:55;;;;;;;9.95;8.75;;;13.60;81.80;;;;;;5107142;27;20055;-74
2022/10/18 02:39:29;;;;;;;9.10;6.90;;;13.50;81.90;;;;;;5099668;27;20448;-75
2022/10/18 02:41:56;;;;;;;11.15;9.45;;;13.50;82.00;;;;;;5133725;27;20039;-74
2022/10/18 02:44:22;;;;;;;7.60;6.80;;;13.50;81.90;;;;;;5133497;27;20039;-74
2022/10/18 02:46:48;;;;;;;11.25;8.63;;;13.50;82.00;;;;;;5133373;27;20070;-74
2022/10/18 02:49:14;;;;;;;9.85;7.50;;;13.50;82.00;;;;;;5133153;27;20043;-74
2022/10/18 02:51:40;;;;;;;10.18;8.80;;;13.40;81.90;;;;;;5133176;27;20108;-75
2022/10/18 02:54:07;;;;;;;12.95;11.30;;;13.40;81.90;;;;;;5132815;27;20035;-74
2022/10/18 02:56:33;;;;;;;12.10;9.73;;;13.40;81.90;;;;;;5133187;27;20047;-74
2022/10/18 02:58:59;;;;;;;9.15;8.23;;;13.40;82.00;;;;;;5132633;27;20043;-74
2022/10/18 03:01:25;;;;;;;13.35;10.70;;;13.40;82.00;;;;;;5133542;27;20061;-74
2022/10/18 03:03:50;;;;;;;11.07;8.18;;;13.40;82.00;;;;;;5098992;27;20035;-74
2022/10/18 03:06:16;;;;;;;12.77;10.20;;;13.40;82.10;;;;;;5133021;27;20035;-74
2022/10/18 03:08:42;;;;;;;13.65;11.13;;;13.40;82.10;;;;;;5115115;27;20035;-74
2022/10/18 03:11:08;;;;;;;9.23;8.02;;;13.40;82.10;;;;;;5115681;27;20087;-74
2022/10/18 03:13:33;;;;;;;9.45;7.50;;;13.40;82.20;;;;;;5115560;27;20054;-75
2022/10/18 03:15:59;;;;;;;12.43;9.75;;;13.40;82.20;;;;;;5132682;27;20494;-74
2022/10/18 03:18:26;;;;;;;10.15;7.82;;;13.40;82.20;;;;;;5132231;27;20039;-74
2022/10/18 03:20:51;;;;;;;9.93;7.32;;;13.40;82.30;;;;;;5095103;28;20081;-74
2022/10/18 03:23:17;;;;;;;9.68;6.85;;;13.40;82.30;;;;;;5094757;28;20031;-74
2022/10/18 03:25:43;;;;;;;8.25;7.25;;;13.40;82.20;;;;;;5130790;27;20075;-74
2022/10/18 03:28:09;;;;;;;11.20;7.78;;;13.40;82.10;;;;;;5095057;28;20119;-74
2022/10/18 03:30:34;;;;;;;7.63;5.95;;;13.40;82.20;;;;;;5095596;27;20500;-74
2022/10/18 03:33:00;;;;;;;8.50;6.80;;;13.40;81.80;;;;;;5132478;27;20057;-74
2022/10/18 03:35:25;;;;;;;8.23;6.18;;;13.30;81.70;;;;;;5098217;27;20035;-74
2022/10/18 03:37:51;;;;;;;9.13;6.47;;;13.30;81.50;;;;;;5132276;27;20043;-74
2022/10/18 03:40:17;;;;;;;8.00;5.97;;;13.30;81.40;;;;;;5132222;27;20035;-74
2022/10/18 03:42:42;;;;;;;6.57;5.28;;;13.30;81.30;;;;;;5131727;27;20444;-75
2022/10/18 03:45:08;;;;;;;6.30;5.32;;;13.30;81.20;;;;;;5114951;27;20031;-74
2022/10/18 03:47:34;;;;;;;7.88;5.82;;;13.30;81.10;;;;;;5131808;27;20035;-74
2022/10/18 03:50:00;;;;;;;7.68;5.50;;;13.30;81.00;;;;;;5132027;27;20039;-75
2022/10/18 03:52:26;;;;;;;7.25;5.47;;;13.30;80.80;;;;;;5131519;27;20153;-74
2022/10/18 03:54:51;;;;;;;6.57;5.80;;;13.20;80.70;;;;;;5114784;28;20047;-74
2022/10/18 03:57:17;;;;;;;5.53;4.53;;;13.20;81.00;;;;;;5114528;28;20498;-74
2022/10/18 03:59:43;;;;;;;6.45;4.85;;;13.20;80.60;;;;;;5132495;27;20043;-74
2022/10/18 04:02:08;;;;;;;5.28;4.40;;;13.20;80.60;;;;;;5132412;27;20046;-74
2022/10/18 04:04:34;;;;;;;6.20;4.75;;;13.10;80.50;;;;;;5114511;28;20031;-74
2022/10/18 04:07:00;;;;;;;6.10;5.03;;;13.10;80.50;;;;;;5131863;28;20035;-74
2022/10/18 04:09:25;;;;;;;4.60;4.20;;;13.10;80.60;;;;;;5114595;28;20047;-75
2022/10/18 04:11:51;;;;;;;5.32;4.55;;;13.10;80.60;;;;;;5132271;28;20035;-74
2022/10/18 04:14:20;;;;;;;5.07;4.57;;;13.10;80.60;;;;;;5114304;28;20220;-74
2022/10/18 04:16:46;;;;;;;5.18;4.68;;;13.10;80.70;;;;;;5115527;28;20432;-74
2022/10/18 04:19:12;;;;;;;5.88;5.38;;;13.10;80.70;;;;;;5131966;28;20031;-74
2022/10/18 04:21:38;;;;;;;5.78;5.18;;;13.10;80.70;;;;;;5131485;28;20027;-75
2022/10/18 04:24:04;;;;;;;5.85;5.22;;;13.10;80.80;;;;;;5114428;27;20091;-75
2022/10/18 04:26:29;;;;;;;8.18;6.38;;;13.00;80.80;;;;;;5131721;27;20047;-75
2022/10/18 04:28:55;;;;;;;7.55;6.85;;;13.10;81.00;;;;;;5115167;27;20036;-75
2022/10/18 04:31:21;;;;;;;9.23;8.32;;;13.00;81.10;;;;;;5131762;27;20506;-75
2022/10/18 04:33:46;;;;;;;14.48;10.23;;;13.00;81.20;;;;;;5131578;28;20082;-74
2022/10/18 04:36:12;;;;;;;7.95;7.07;;;13.00;81.30;;;;;;5132011;27;20043;-74
2022/10/18 04:38:38;;;;;;;10.95;8.88;;;13.00;81.40;;;;;;5114709;28;20046;-74
2022/10/18 04:41:03;;;;;;;9.88;8.88;;;13.10;81.60;;;;;;5131469;28;20118;-74
2022/10/18 04:43:29;;;;;;;15.60;10.18;;;13.10;81.70;;;;;;5132102;27;20126;-74
2022/10/18 04:45:55;;;;;;;12.20;8.18;;;13.10;81.80;;;;;;5143085;27;20467;-74
2022/10/18 04:48:20;;;;;;;8.77;7.88;;;13.10;81.90;;;;;;5131331;27;20046;-74
2022/10/18 04:50:50;;;;;;;8.30;7.40;;;13.10;82.00;;;;;;5131316;28;20038;-73
2022/10/18 04:53:16;;;;;;;8.38;7.53;;;13.10;82.10;;;;;;5131704;27;20497;-75
2022/10/18 04:55:44;;;;;;;10.07;7.82;;;13.10;82.10;;;;;;5097368;27;20051;-75
2022/10/18 04:58:10;;;;;;;8.68;7.18;;;13.10;82.20;;;;;;5113852;28;20529;-73
2022/10/18 05:00:36;;;;;;;6.78;6.10;;;13.10;82.30;;;;;;5131703;28;20066;-74
2022/10/18 05:03:02;;;;;;;7.53;6.82;;;13.10;82.30;;;;;;5116369;27;20031;-74
2022/10/18 05:05:27;;;;;;;8.55;7.75;;;13.10;82.40;;;;;;5135131;27;20042;-74
2022/10/18 05:07:53;;;;;;;7.20;6.50;;;13.10;82.40;;;;;;5135069;27;20071;-74
2022/10/18 05:10:19;;;;;;;7.65;6.90;;;13.10;82.40;;;;;;5117948;27;20049;-74
2022/10/18 05:12:44;;;;;;;7.32;6.63;;;13.20;82.50;;;;;;5135359;27;20043;-74
2022/10/18 05:15:10;;;;;;;6.70;6.10;;;13.20;82.50;;;;;;5117977;27;20073;-74
2022/10/18 05:17:36;;;;;;;8.07;7.32;;;13.20;82.50;;;;;;5098002;27;20092;-74
2022/10/18 05:20:02;;;;;;;7.47;6.78;;;13.20;82.40;;;;;;5101251;27;20031;-74
2022/10/18 05:22:27;;;;;;;7.90;7.07;;;13.20;82.40;;;;;;5118483;27;20034;-74
2022/10/18 05:24:53;;;;;;;7.78;7.07;;;13.20;82.40;;;;;;5135449;27;20493;-74
2022/10/18 05:27:19;;;;;;;6.53;5.93;;;13.20;82.30;;;;;;5118418;27;20122;-74
2022/10/18 05:29:44;;;;;;;7.75;7.00;;;13.20;82.40;;;;;;5117563;27;20039;-74
2022/10/18 05:32:10;;;;;;;7.43;6.63;;;13.20;82.30;;;;;;5134396;27;20395;-74
2022/10/18 05:34:36;;;;;;;7.25;6.47;;;13.20;82.20;;;;;;5118465;27;20035;-74
2022/10/18 05:37:02;;;;;;;6.40;5.80;;;13.20;82.10;;;;;;5134687;27;20043;-73
2022/10/18 05:39:27;;;;;;;7.18;6.47;;;13.20;82.10;;;;;;5118201;27;20045;-73
2022/10/18 05:41:53;;;;;;;6.45;5.72;;;13.20;82.00;;;;;;5135232;27;20043;-73
2022/10/18 05:44:19;;;;;;;6.18;5.57;;;13.30;82.00;;;;;;5135064;27;20161;-73
2022/10/18 05:46:44;;;;;;;6.80;6.20;;;13.30;82.00;;;;;;5117934;27;20031;-73
2022/10/18 05:49:14;;;;;;;6.72;6.13;;;13.30;81.90;;;;;;5118195;27;20050;-73
2022/10/18 05:51:39;;;;;;;6.00;5.50;;;13.30;81.90;;;;;;5134786;27;20124;-71
2022/10/18 05:54:05;;;;;;;8.40;7.53;;;13.30;81.80;;;;;;5117373;27;20471;-72
2022/10/18 05:56:31;;;;;;;5.95;5.45;;;13.30;81.70;;;;;;5134287;27;20472;-72
2022/10/18 05:58:56;;;;;;;6.35;5.85;;;13.30;81.60;;;;;;5134519;27;20126;-71
2022/10/18 06:01:22;;;;;;;5.93;5.43;;;13.30;81.50;;;;;;5134612;27;20039;-71
2022/10/18 06:03:49;;;;;;;6.03;5.43;;;13.30;81.50;;;;;;5134638;27;20093;-72
2022/10/18 06:06:15;;;;;;;6.35;5.75;;;13.30;81.40;;;;;;5134627;27;20118;-81
2022/10/18 06:08:42;;;;;;;6.05;5.50;;;13.30;81.30;;;;;;5134877;27;20042;-71
2022/10/18 06:11:13;;;;;;;6.22;5.63;;;13.30;81.30;;;;;;5116861;27;20047;-71
2022/10/18 06:13:43;;;;;;;6.05;4.93;;;13.30;81.30;;;;;;5133900;27;20049;-71
2022/10/18 06:16:10;;;;;;;6.50;5.90;;;13.20;81.20;;;;;;5117009;27;20043;-72
2022/10/18 06:18:36;;;;;;;5.80;5.20;;;13.20;81.20;;;;;;5134123;27;20039;-72
2022/10/18 06:21:02;;;;;;;6.00;5.45;;;13.30;81.20;;;;;;5133722;27;20043;-72
2022/10/18 06:23:28;;;;;;;6.18;5.68;;;13.20;81.10;;;;;;5117376;27;20083;-72
2022/10/18 06:26:05;;;;;;;5.50;5.00;;;13.20;81.00;;;;;;5134188;27;20097;-72
2022/10/18 06:28:34;;;;;;;5.13;4.70;;;13.30;81.00;;;;;;5134062;27;20039;-72
2022/10/18 06:31:00;;;;;;;9.32;5.65;;;13.20;80.80;;;;;;5134415;27;20106;-72
2022/10/18 06:33:26;;;;;;;5.38;4.80;;;13.20;80.70;;;;;;5134047;27;20375;-72
2022/10/18 06:36:00;;;;;;;6.05;5.55;;;13.20;80.60;;;;;;5133400;27;20042;-72
2022/10/18 06:38:27;;;;;;;6.00;4.82;;;13.20;80.60;;;;;;5134211;27;20482;-72
2022/10/18 06:40:53;;;;;;;6.80;5.28;;;13.20;80.60;;;;;;5133799;27;20497;-72
2022/10/18 06:43:19;;;;;;;5.75;5.25;;;13.20;80.50;;;;;;5133849;27;20035;-72
2022/10/18 06:45:44;;;;;;;5.10;4.60;;;13.20;80.40;;;;;;5134068;27;20035;-72
2022/10/18 06:48:10;;;;;;;5.22;4.80;;;13.10;80.30;;;;;;5134133;27;20046;-72
2022/10/18 06:50:36;;;;;;;4.82;4.43;;;13.10;80.20;;;;;;5133713;27;20533;-72
2022/10/18 06:53:04;;;;;;;4.70;4.30;;;13.10;80.00;;;;;;5133560;27;20081;-72
2022/10/18 06:55:31;;;;;;;5.05;3.60;;;13.10;79.90;;;;;;5133749;27;20528;-72
2022/10/18 06:57:56;;;;;;;4.07;3.78;;;13.10;79.80;;;;;;5133692;27;20079;-72
2022/10/18 07:00:22;;;;;;;4.30;3.90;;;13.00;79.80;;;;;;5133731;27;20082;-72
2022/10/18 07:02:48;;;;;;;5.05;4.55;;;13.00;79.80;;;;;;5116646;27;20035;-72
2022/10/18 07:05:14;;;;;;;6.13;5.15;;;13.10;80.00;;;;;;5116554;27;20064;-72
2022/10/18 07:07:39;;;;;;;4.50;4.10;;;13.00;79.90;;;;;;5133089;27;20042;-72
2022/10/18 07:10:05;;;;;;;5.03;4.63;;;13.00;79.90;;;;;;5133009;27;20047;-72
2022/10/18 07:12:31;;;;;;;5.68;5.03;;;13.00;79.90;;;;;;5133315;27;20091;-72
2022/10/18 07:14:57;;;;;;;4.40;3.95;;;13.10;80.10;;;;;;5133600;27;20039;-72
2022/10/18 07:17:23;;;;;;;5.40;4.90;;;13.00;80.20;;;;;;5132890;27;20100;-72
2022/10/18 07:19:48;;;;;;;5.30;4.80;;;13.10;80.30;;;;;;5133295;27;20402;-73
2022/10/18 07:22:14;;;;;;;6.43;5.18;;;13.10;80.40;;;;;;5115927;27;20083;-73
2022/10/18 07:24:40;;;;;;;5.53;5.03;;;13.00;80.40;;;;;;5132936;27;20120;-72
2022/10/18 07:27:05;;;;;;;5.40;4.88;;;13.00;80.50;;;;;;5132386;27;20058;-72
2022/10/18 07:29:31;;;;;;;5.97;5.25;;;13.10;80.60;;;;;;5115807;27;20039;-73
2022/10/18 07:31:57;;;;;;;6.55;5.95;;;13.10;80.70;;;;;;5132920;27;20035;-73
2022/10/18 07:34:22;;;;;;;10.65;6.20;;;13.10;80.70;;;;;;5098859;27;20065;-72
2022/10/18 07:36:48;;;;;;;5.63;5.13;;;13.10;80.70;;;;;;5132900;27;20050;-72
2022/10/18 07:39:14;;;;;;;7.03;6.38;;;13.10;80.60;;;;;;5115499;27;20035;-72
2022/10/18 07:41:40;;;;;;;5.95;5.25;;;13.10;80.60;;;;;;5132404;27;20035;-73
2022/10/18 07:44:05;;;;;;;6.43;5.70;;;13.10;80.70;;;;;;5115650;27;20039;-73
2022/10/18 07:46:31;;;;;;;14.32;5.50;;;13.20;80.80;;;;;;5133067;27;20039;-73
2022/10/18 07:48:59;;;;;;;6.10;5.13;;;13.10;80.80;;;;;;5132642;27;20046;-73
2022/10/18 07:51:26;;;;;;;6.30;5.35;;;13.20;80.70;;;;;;5132746;27;20451;-73
2022/10/18 07:53:52;;;;;;;5.35;4.85;;;13.20;80.70;;;;;;5132832;27;20065;-73
2022/10/18 07:56:19;;;;;;;6.55;5.85;;;13.30;80.80;;;;;;5114835;28;20050;-73
2022/10/18 07:58:50;;;;;;;6.10;5.50;;;13.30;80.90;;;;;;5132215;27;20039;-73
2022/10/18 08:01:15;;;;;;;5.30;4.80;;;13.30;81.50;;;;;;5132634;27;20035;-73
2022/10/18 08:03:42;;;;;;;5.72;5.10;;;13.30;81.00;;;;;;5132329;27;20171;-73
2022/10/18 08:06:09;;;;;;;6.28;5.68;;;13.30;81.00;;;;;;5132547;27;20546;-73
2022/10/18 08:08:37;;;;;;;6.07;5.35;;;13.40;81.00;;;;;;5117587;28;20035;-72
2022/10/18 08:11:11;;;;;;;6.15;5.25;;;13.50;81.10;;;;;;5151484;27;20046;-72
2022/10/18 08:13:37;;;;;;;5.95;5.38;;;13.50;81.10;;;;;;5132112;27;20035;-72
2022/10/18 08:16:08;;;;;;;7.13;6.47;;;13.50;81.10;;;;;;5081574;27;20035;-72
2022/10/18 08:18:35;;;;;;;6.78;6.10;;;13.60;81.20;;;;;;5132061;27;20126;-73
2022/10/18 08:21:03;;;;;;;7.10;5.90;;;13.70;81.30;;;;;;5132558;28;20050;-73
2022/10/18 08:23:29;;;;;;;7.32;6.40;;;13.70;81.10;;;;;;5115443;28;20391;-73
2022/10/18 08:25:55;;;;;;;5.95;5.30;;;13.80;81.00;;;;;;5131430;28;20028;-73
2022/10/18 08:28:21;;;;;;;6.22;5.47;;;13.80;80.90;;;;;;5131816;27;20147;-73
2022/10/18 08:30:46;;;;;;;6.90;6.00;;;13.90;80.80;;;;;;5114911;28;20031;-73
2022/10/18 08:33:12;;;;;;;6.82;5.57;;;13.90;80.70;;;;;;5098062;28;20047;-73
2022/10/18 08:35:38;;;;;;;5.97;5.38;;;14.00;81.00;;;;;;5114197;28;20035;-74
2022/10/18 08:38:04;;;;;;;6.32;5.20;;;14.10;81.20;;;;;;5134050;27;20039;-73
2022/10/18 08:40:42;;;;;;;8.10;5.68;;;14.20;81.20;;;;;;5136205;27;20075;-72
2022/10/18 08:43:17;;;;;;;5.90;5.25;;;14.30;80.70;;;;;;5135950;27;20125;-73
2022/10/18 08:45:43;;;;;;;5.53;4.80;;;14.40;80.50;;;;;;5136043;27;20039;-73
2022/10/18 08:48:36;;;;;;;7.50;5.60;;;14.50;80.20;;;;;;5119169;27;20393;-73
2022/10/18 08:51:05;;;;;;;9.02;6.35;;;14.60;80.00;;;;;;5115904;28;20517;-73
2022/10/18 08:53:50;;;;;;;7.45;5.15;;;14.80;80.40;;;;;;5122892;27;20432;-73
2022/10/18 08:56:20;;;;;;;7.97;5.30;;;14.90;80.30;;;;;;5098063;28;20505;-74
2022/10/18 08:58:46;;;;;;;8.40;4.80;;;15.10;79.90;;;;;;5116429;27;20529;-73
2022/10/18 09:01:22;;;;;;;9.07;5.72;;;15.30;79.90;;;;;;5135707;27;20062;-73
2022/10/18 09:04:14;;;;;;;5.03;4.15;;;15.50;79.90;;;;;;5135713;27;20035;-73
2022/10/18 09:06:45;;;;;;;7.95;5.05;;;15.80;79.10;;;;;;5115537;28;20047;-73
2022/10/18 09:09:33;;;;;;;6.10;3.97;;;16.10;78.80;;;;;;5118474;27;20047;-73
2022/10/18 09:12:20;;;;;;;7.93;4.85;;;16.30;78.30;;;;;;5135664;27;20122;-73
2022/10/18 09:15:17;;;;;;;7.68;4.15;;;16.50;77.40;;;;;;5135739;27;20035;-73
2022/10/18 09:18:07;;;;;;;5.78;4.10;;;16.70;76.70;;;;;;5135389;27;20039;-73
2022/10/18 09:20:55;;;;;;;6.03;3.83;;;16.90;76.30;;;;;;5127148;27;20072;-73
2022/10/18 09:23:22;;;;;;;6.78;3.25;;;17.10;76.00;;;;;;5135728;27;20061;-73
2022/10/18 09:25:57;;;;;;;6.13;3.17;;;17.30;75.60;;;;;;5118192;27;20035;-73
2022/10/18 09:28:37;;;;;;;5.45;3.33;;;17.40;74.90;;;;;;5135464;27;20043;-73
2022/10/18 09:31:12;;;;;;;5.88;3.33;;;17.60;74.40;;;;;;5135033;27;20043;-73
2022/10/18 09:33:57;;;;;;;6.88;3.00;;;17.70;74.00;;;;;;5134709;27;20026;-73
2022/10/18 09:36:26;;;;;;;6.70;2.90;;;17.90;73.40;;;;;;5117888;27;20043;-73
2022/10/18 09:38:57;;;;;;;9.77;2.58;;;17.90;73.60;;;;;;5117951;27;20085;-73
2022/10/18 09:41:32;;;;;;;6.55;2.33;;;18.00;72.70;;;;;;5134937;27;20039;-73
2022/10/18 09:44:15;;;;;;;7.03;2.03;;;18.10;72.00;;;;;;5135274;27;20043;-73
2022/10/18 09:46:48;;;;;;;6.32;2.08;;;18.20;71.90;;;;;;5135118;27;20405;-73
2022/10/18 09:49:28;;;;;;;6.63;2.20;;;18.30;71.60;;;;;;5134059;27;20416;-73
2022/10/18 09:51:55;;;;;;;7.75;2.40;;;18.40;71.20;;;;;;5133984;27;20565;-73
2022/10/18 09:54:36;;;;;;;5.70;1.98;;;18.50;70.90;;;;;;5134916;27;20475;-73
2022/10/18 09:57:40;;;;;;;8.38;2.20;;;18.50;70.80;;;;;;5134435;27;20057;-73
2022/10/18 10:00:20;;;;;;;8.48;1.65;;;18.60;70.50;;;;;;5117550;27;20049;-73
2022/10/18 10:02:46;;;;;;;9.40;2.00;;;18.60;69.70;;;;;;5117224;27;20054;-73
2022/10/18 10:05:13;;;;;;;10.38;2.25;;;18.70;69.30;;;;;;5134234;27;20039;-73
2022/10/18 10:07:47;;;;;;;6.80;2.13;;;18.70;68.70;;;;;;5134688;27;20043;-73
2022/10/18 10:10:22;;;;;;;8.27;1.77;;;18.70;67.90;;;;;;5134483;27;20081;-73
2022/10/18 10:13:05;;;;;;;8.73;2.25;;;18.70;68.00;;;;;;5134718;27;20047;-73
2022/10/18 10:15:32;;;;;;;9.40;1.80;;;18.70;67.70;;;;;;5134301;27;20043;-73
2022/10/18 10:18:27;;;;;;;10.27;1.73;;;18.60;67.70;;;;;;5134024;27;20031;-73
2022/10/18 10:21:01;;;;;;;8.15;1.58;;;18.60;67.30;;;;;;5133969;27;20039;-73
2022/10/18 10:23:29;;;;;;;8.85;1.90;;;18.60;66.90;;;;;;5117121;27;20043;-73
2022/10/18 10:26:18;;;;;;;8.43;2.13;;;18.50;67.00;;;;;;5134244;27;20068;-73
2022/10/18 10:28:47;;;;;;;7.57;1.40;;;18.50;67.10;;;;;;5134432;27;20118;-73
2022/10/18 10:31:33;;;;;;;12.00;2.63;;;18.40;67.40;;;;;;5134004;27;20053;-73
2022/10/18 10:34:13;;;;;;;12.82;2.17;;;18.40;67.00;;;;;;5133975;27;20508;-73
2022/10/18 10:36:50;;;;;;;9.20;2.10;;;18.40;67.10;;;;;;5133829;27;20052;-73
2022/10/18 10:39:19;;;;;;;8.25;1.42;;;18.30;66.40;;;;;;5134147;27;20043;-73
2022/10/18 10:41:54;;;;;;;8.52;1.67;;;18.20;66.20;;;;;;5133760;27;20039;-73
2022/10/18 10:44:22;;;;;;;7.57;1.67;;;18.20;66.50;;;;;;5151106;27;20049;-73
2022/10/18 10:46:49;;;;;;;11.95;2.33;;;18.20;67.00;;;;;;5134031;27;20062;-73
2022/10/18 10:49:24;;;;;;;8.68;2.22;;;18.20;67.30;;;;;;5116893;27;20039;-73
2022/10/18 10:51:59;;;;;;;10.52;1.98;;;18.20;67.60;;;;;;5133493;27;20043;-73
2022/10/18 10:54:27;;;;;;;8.68;1.80;;;18.20;67.60;;;;;;5133634;27;20494;-73
2022/10/18 10:57:10;;;;;;;10.15;1.50;;;18.20;67.70;;;;;;5116098;27;20051;-73
2022/10/18 10:59:50;;;;;;;8.10;1.73;;;18.20;67.40;;;;;;5133298;27;20096;-73
2022/10/18 11:02:24;;;;;;;8.07;1.50;;;18.20;67.20;;;;;;5133364;27;20096;-73
2022/10/18 11:04:53;;;;;;;9.95;1.95;;;18.20;67.10;;;;;;5133487;27;20049;-72
2022/10/18 11:07:43;;;;;;;10.13;2.15;;;18.20;66.90;;;;;;5115993;27;20046;-72
2022/10/18 11:10:20;;;;;;;6.25;1.50;;;18.20;65.40;;;;;;5133580;27;20499;-72
2022/10/18 11:13:01;;;;;;;7.28;1.60;;;18.20;64.90;;;;;;5115928;27;20091;-72
2022/10/18 11:15:44;;;;;;;9.18;1.50;;;18.20;65.00;;;;;;5112918;28;20055;-72
2022/10/18 11:18:18;;;;;;;13.45;2.47;;;18.20;64.90;;;;;;5131124;27;20468;-72
2022/10/18 11:21:01;;;;;;;7.70;2.42;;;18.10;65.10;;;;;;5116181;27;20039;-71
2022/10/18 11:23:30;;;;;;;12.63;2.60;;;18.10;64.80;;;;;;5133020;27;20768;-72
2022/10/18 11:26:11;;;;;;;7.88;1.55;;;18.00;64.80;;;;;;5133400;27;20035;-72
2022/10/18 11:29:13;;;;;;;5.60;1.30;;;18.00;65.60;;;;;;5112784;28;20042;-72
2022/10/18 11:32:03;;;;;;;8.75;1.52;;;18.00;65.90;;;;;;5115568;27;20035;-72
2022/10/18 11:34:43;;;;;;;9.70;1.90;;;18.00;65.70;;;;;;5116194;27;20031;-72
2022/10/18 11:37:24;;;;;;;9.18;1.60;;;18.00;65.20;;;;;;5132774;27;20043;-72
2022/10/18 11:39:50;;;;;;;10.60;1.80;;;18.00;64.80;;;;;;5132660;27;20039;-72
2022/10/18 11:42:27;;;;;;;8.63;2.20;;;17.90;64.90;;;;;;5132527;27;20393;-72
2022/10/18 11:45:14;;;;;;;10.18;1.90;;;17.90;64.80;;;;;;5116039;27;20073;-72
2022/10/18 11:48:07;;;;;;;6.65;1.98;;;17.90;64.80;;;;;;5132967;27;20046;-72
2022/10/18 11:51:01;;;;;;;7.70;1.80;;;17.90;65.40;;;;;;5091553;27;20043;-73
2022/10/18 11:54:04;;;;;;;5.60;1.47;;;17.90;65.20;;;;;;5132869;27;20035;-73
2022/10/18 11:56:32;;;;;;;5.80;1.20;;;17.90;65.70;;;;;;5132132;27;20047;-73
2022/10/18 11:59:07;;;;;;;8.75;1.40;;;17.80;65.90;;;;;;5132541;27;20109;-74
2022/10/18 12:01:48;;;;;;;8.32;2.17;;;17.80;65.90;;;;;;5132655;27;20555;-72
2022/10/18 12:04:17;;;;;;;8.48;1.85;;;17.90;65.70;;;;;;5132395;28;20050;-72
2022/10/18 12:06:46;;;;;;;11.07;2.13;;;17.80;65.60;;;;;;5115279;27;20055;-73
2022/10/18 12:09:40;;;;;;;7.45;1.70;;;17.80;65.30;;;;;;5132103;27;20039;-73
2022/10/18 12:12:22;;;;;;;9.50;1.73;;;17.80;65.80;;;;;;5128938;27;20080;-73
2022/10/18 12:14:53;;;;;;;8.27;1.67;;;17.80;65.80;;;;;;5132613;27;20039;-73
2022/10/18 12:17:33;;;;;;;9.68;2.10;;;17.80;65.60;;;;;;5114745;27;20043;-71
2022/10/18 12:20:04;;;;;;;8.27;2.28;;;17.90;65.10;;;;;;5132446;27;20386;-71
2022/10/18 12:22:55;;;;;;;9.73;2.15;;;17.90;64.30;;;;;;5131862;28;20533;-72
2022/10/18 12:25:21;;;;;;;12.15;2.20;;;17.80;63.60;;;;;;5132655;27;20394;-72
2022/10/18 12:27:58;;;;;;;9.57;1.63;;;17.80;64.00;;;;;;5132235;28;20431;-72
2022/10/18 12:30:30;;;;;;;7.82;1.30;;;17.80;63.70;;;;;;5149253;27;20069;-72
2022/10/18 12:33:25;;;;;;;11.75;1.88;;;17.80;63.50;;;;;;5132070;27;20126;-72
2022/10/18 12:36:00;;;;;;;9.27;1.83;;;17.80;63.40;;;;;;5131953;27;20084;-72
2022/10/18 12:38:32;;;;;;;7.95;1.63;;;17.80;63.60;;;;;;5131831;28;20051;-72
2022/10/18 12:40:58;;;;;;;6.72;1.65;;;17.80;63.50;;;;;;5132377;28;20100;-71
2022/10/18 12:43:32;;;;;;;9.32;1.52;;;17.80;63.40;;;;;;5115151;28;20042;-71
2022/10/18 12:46:00;;;;;;;6.00;1.48;;;17.80;63.40;;;;;;5132252;27;20539;-71
2022/10/18 12:48:46;;;;;;;8.20;1.48;;;17.70;63.40;;;;;;5131900;27;20043;-71
2022/10/18 12:51:19;;;;;;;7.70;1.27;;;17.70;62.90;;;;;;5131736;28;20043;-71
2022/10/18 12:53:55;;;;;;;7.10;1.40;;;17.70;63.10;;;;;;5139667;27;20507;-71
2022/10/18 12:56:27;;;;;;;9.85;2.22;;;17.70;62.80;;;;;;5117040;28;20047;-71
2022/10/18 12:59:14;;;;;;;7.93;1.60;;;17.60;63.10;;;;;;5131832;27;20517;-72
2022/10/18 13:01:52;;;;;;;11.27;1.73;;;17.60;63.50;;;;;;5131184;28;20039;-72
2022/10/18 13:04:26;;;;;;;11.40;2.05;;;17.60;63.10;;;;;;5131910;28;20035;-72
2022/10/18 13:06:58;;;;;;;7.13;1.40;;;17.50;62.40;;;;;;5114980;28;20047;-72